LIMLLSGS

Guest
Details From LIML - Milano Linate
To LSGS - Sion
Flight Number -
Tags generated
Created
Modified
Stats Distance 94 nm / 175 km
Max Altitude 10,700 ft / 3,261 m
Waypoints 3
Social Downloads 0
Likes 0
Share VATSIM

Download

Looking for another format? Having issues loading an existing format? Contact us
Advertisement - Login to hide

Notes

Basic altitude profile: - Ascent Rate: 2500ft/min - Ascent Speed: 250kts - Cruise Altitude: 35000ft - Cruise Speed: 420kts - Descent Rate: 1500ft/min - Descent Speed: 250kts Options: - Use NATs: yes - Use PACOTS: yes - Use low airways: yes - Use high airways: yes

Route

LIML BAVMI LSGS

ID Type Via Altitude Latitude Longitude Leg Dist Tot Dist Heading (true) Name
O LIML APT - 0 ft / 0 m 45.45030˚ 9.27280˚ - 0 nm - Milano Linate
BAVMI FIX - 10,700 ft / 3,261 m 45.70361˚ 8.40778˚ 39 nm 39 nm 293° / 292° -
O LSGS APT - 0 ft / 0 m 46.21895˚ 7.32409˚ 54 nm 94 nm 305° / 304° Sion

Altitude Profile

Advertisement - Login to hide

LIML

Details ICAO LIML (LIN)
Name Milano Linate
Region Italy
Timezone Europe/Rome (UTC+1.0)
Stats Elevation 353 ft / 108 m (AMSL)
Location 45.450302° 9.272801°
Runways 2
Magnetic Variation 2.500° E

METAR

LIML 130850Z 29003KT 240V050 0100 R36/0200V0250N FG BKN001 M00/M00 Q1018 NOSIG

Decode

TAF

TAF AMD LIML 130834Z 1309/1406 VRB05KT 0200 BR BKN002 BECMG 1309/1311 1500 BR BKN010 BECMG 1311/1313 6000 SCT015 BECMG 1320/1322 2500 BCFG TEMPO 1400/1406 0600 FZFG

Decode

Departure Runways

ID Width Length Bearing (true) Bearing (mag) Surface Threshold Offset Overrun Length
17 72 ft / 22 m 1,975 ft / 602 m 175.64° 173.14° Asphalt 200 ft / 61 m 0 ft / 0 m
18 197 ft / 60 m 8,017 ft / 2,443 m 175.67° 173.17° Asphalt 0 ft / 0 m 190 ft / 58 m
35 72 ft / 22 m 1,975 ft / 602 m 355.64° 353.14° Asphalt 200 ft / 61 m 0 ft / 0 m
36 197 ft / 60 m 8,017 ft / 2,443 m 355.68° 353.18° Asphalt 0 ft / 0 m 980 ft / 299 m

LSGS

Details ICAO LSGS (SIR)
Name Sion
Region Switzerland
Timezone Europe/Zurich (UTC+1.0)
Stats Elevation 1,585 ft / 483 m (AMSL)
Location 46.218954° 7.324090°
Runways 2
Magnetic Variation 2.042° E

METAR

LSGS 130920Z 09005KT 9999 FEW050 M03/M07 Q1021

Decode

TAF

Not found

Destination Runways

ID Width Length Bearing (true) Bearing (mag) Surface Threshold Offset Overrun Length
07L 98 ft / 30 m 2,167 ft / 661 m 72.83° 70.79° Grass 0 ft / 0 m 0 ft / 0 m
07R 131 ft / 40 m 6,605 ft / 2,013 m 72.84° 70.80° Asphalt 164 ft / 50 m 627 ft / 191 m
25L 131 ft / 40 m 6,605 ft / 2,013 m 252.86° 250.82° Asphalt 164 ft / 50 m 627 ft / 191 m
25R 98 ft / 30 m 2,167 ft / 661 m 252.83° 250.79° Grass 328 ft / 100 m 0 ft / 0 m

Approach Navaids

Runway Type Ident Frequency Range Bearing (true) Bearing (mag) Slope Elevation
25L Localiser ISI 110.70 MHz 45 nm / 83 km 246.48° 244.44° - 1,609 ft / 490 m (AMSL)
25L Glidescope ISI 110.70 MHz 45 nm / 83 km 246.48° 244.44° 6.00° 1,595 ft / 486 m (AMSL)
25L DME ISI 108.35 MHz 45 nm / 83 km - - - 1,609 ft / 490 m (AMSL)

Popular Alternatives